Time,TemperatureF,DewpointF,PressureIn,WindDirection,WindDirectionDegrees,WindSpeedMPH,WindSpeedGustMPH,Humidity,HourlyPrecipIn,Conditions,Clouds,dailyrainin,SoftwareType,DateUTC
2013-02-04 00:02:00,36.0,32.0,-100.00,NE,55,4.0,-999.0,87,0.00,,,-99.99,,2013-02-04 09:02:00,
2013-02-04 00:11:00,36.0,32.0,-100.00,NE,55,4.0,-999.0,87,0.00,,,-99.99,,2013-02-04 09:11:00,
2013-02-04 00:21:00,36.0,32.0,-100.00,NE,55,4.0,-999.0,87,0.00,,,-99.99,,2013-02-04 09:21:00,
2013-02-04 00:30:00,36.0,31.0,-100.00,SE,126,2.0,-999.0,82,0.00,,,-99.99,,2013-02-04 09:30:00,
2013-02-04 00:52:00,36.0,31.0,-100.00,SE,126,2.0,-999.0,82,0.00,,,-99.99,,2013-02-04 09:52:00,
2013-02-04 01:01:00,36.0,31.0,-100.00,SE,126,2.0,-999.0,82,0.00,,,-99.99,,2013-02-04 10:01:00,
2013-02-04 01:11:00,36.0,31.0,-100.00,SE,126,2.0,-999.0,82,0.00,,,-99.99,,2013-02-04 10:11:00,
2013-02-04 01:21:00,36.0,31.0,-100.00,SE,126,2.0,-999.0,82,0.00,,,-99.99,,2013-02-04 10:21:00,
2013-02-04 01:30:00,37.0,31.0,-100.00,South,174,3.0,-999.0,80,0.00,,,-99.99,,2013-02-04 10:30:00,
2013-02-04 01:52:00,37.0,31.0,-100.00,South,174,3.0,-999.0,80,0.00,,,-99.99,,2013-02-04 10:52:00,
2013-02-04 02:01:00,37.0,31.0,-100.00,South,174,3.0,-999.0,80,0.00,,,-99.99,,2013-02-04 11:01:00,
2013-02-04 02:11:00,37.0,31.0,-100.00,South,174,3.0,-999.0,80,0.00,,,-99.99,,2013-02-04 11:11:00,
2013-02-04 02:22:00,37.0,31.0,-100.00,South,174,3.0,-999.0,80,0.00,,,-99.99,,2013-02-04 11:22:00,
2013-02-04 02:30:00,38.0,31.0,-100.00,ESE,104,7.0,-999.0,76,0.00,,,-99.99,,2013-02-04 11:30:00,
2013-02-04 02:52:00,38.0,31.0,-100.00,ESE,104,7.0,-999.0,76,0.00,,,-99.99,,2013-02-04 11:52:00,
2013-02-04 03:02:00,38.0,31.0,-100.00,ESE,104,7.0,-999.0,76,0.00,,,-99.99,,2013-02-04 12:02:00,
2013-02-04 03:12:00,38.0,31.0,-100.00,ESE,104,7.0,-999.0,76,0.00,,,-99.99,,2013-02-04 12:12:00,
2013-02-04 03:21:00,38.0,31.0,-100.00,ESE,104,7.0,-999.0,76,0.00,,,-99.99,,2013-02-04 12:21:00,
2013-02-04 03:30:00,36.0,32.0,-100.00,North,352,3.0,-999.0,84,0.00,,,-99.99,,2013-02-04 12:30:00,
2013-02-04 03:53:00,36.0,32.0,-100.00,North,352,3.0,-999.0,84,0.00,,,-99.99,,2013-02-04 12:53:00,
2013-02-04 04:02:00,36.0,32.0,-100.00,North,352,3.0,-999.0,84,0.00,,,-99.99,,2013-02-04 13:02:00,
2013-02-04 04:11:00,36.0,32.0,-100.00,North,352,3.0,-999.0,84,0.00,,,-99.99,,2013-02-04 13:11:00,
2013-02-04 04:21:00,36.0,32.0,-100.00,North,352,3.0,-999.0,84,0.00,,,-99.99,,2013-02-04 13:21:00,
2013-02-04 04:30:00,37.0,32.0,-100.00,NE,47,7.0,-999.0,81,0.00,,,-99.99,,2013-02-04 13:30:00,
2013-02-04 04:52:00,37.0,32.0,-100.00,NE,47,7.0,-999.0,81,0.00,,,-99.99,,2013-02-04 13:52:00,
2013-02-04 05:02:00,37.0,32.0,-100.00,NE,47,7.0,-999.0,81,0.00,,,-99.99,,2013-02-04 14:02:00,
2013-02-04 05:11:00,37.0,32.0,-100.00,NE,47,7.0,-999.0,81,0.00,,,-99.99,,2013-02-04 14:11:00,
2013-02-04 05:21:00,37.0,32.0,-100.00,NE,47,7.0,-999.0,81,0.00,,,-99.99,,2013-02-04 14:21:00,
2013-02-04 05:30:00,38.0,32.0,-100.00,NE,52,8.0,-999.0,81,0.00,,,-99.99,,2013-02-04 14:30:00,
2013-02-04 05:52:00,38.0,32.0,-100.00,NE,52,8.0,-999.0,81,0.00,,,-99.99,,2013-02-04 14:52:00,
2013-02-04 06:03:00,38.0,32.0,-100.00,NE,52,8.0,-999.0,81,0.00,,,-99.99,,2013-02-04 15:03:00,
2013-02-04 06:12:00,38.0,32.0,-100.00,NE,52,8.0,-999.0,81,0.00,,,-99.99,,2013-02-04 15:12:00,
2013-02-04 06:23:00,38.0,32.0,-100.00,NE,52,8.0,-999.0,81,0.00,,,-99.99,,2013-02-04 15:23:00,
2013-02-04 06:30:00,37.0,33.0,-100.00,SE,131,4.0,-999.0,87,0.01,,,-99.99,,2013-02-04 15:30:00,
2013-02-04 06:52:00,37.0,33.0,-100.00,SE,131,4.0,-999.0,87,0.01,,,-99.99,,2013-02-04 15:52:00,
2013-02-04 07:02:00,37.0,33.0,-100.00,SE,131,4.0,-999.0,87,0.01,,,-99.99,,2013-02-04 16:02:00,
2013-02-04 07:11:00,37.0,33.0,-100.00,SE,131,4.0,-999.0,87,0.01,,,-99.99,,2013-02-04 16:11:00,
2013-02-04 07:22:00,37.0,33.0,-100.00,SE,131,4.0,-999.0,87,0.01,,,-99.99,,2013-02-04 16:22:00,
2013-02-04 07:30:00,37.0,34.0,-100.00,ENE,61,8.0,-999.0,89,0.01,,,-99.99,,2013-02-04 16:30:00,
2013-02-04 07:52:00,37.0,34.0,-100.00,ENE,61,8.0,-999.0,89,0.01,,,-99.99,,2013-02-04 16:52:00,
2013-02-04 08:02:00,37.0,34.0,-100.00,ENE,61,8.0,-999.0,89,0.01,,,-99.99,,2013-02-04 17:02:00,
2013-02-04 08:11:00,37.0,34.0,-100.00,ENE,61,8.0,-999.0,89,0.01,,,-99.99,,2013-02-04 17:11:00,
2013-02-04 08:21:00,37.0,34.0,-100.00,ENE,61,8.0,-999.0,89,0.01,,,-99.99,,2013-02-04 17:21:00,
2013-02-04 08:30:00,38.0,33.0,-100.00,ESE,103,9.0,-999.0,84,0.01,,,-99.99,,2013-02-04 17:30:00,
2013-02-04 08:52:00,38.0,33.0,-100.00,ESE,103,9.0,-999.0,84,0.01,,,-99.99,,2013-02-04 17:52:00,
2013-02-04 09:03:00,38.0,33.0,-100.00,ESE,103,9.0,-999.0,84,0.01,,,-99.99,,2013-02-04 18:03:00,
2013-02-04 09:11:00,38.0,33.0,-100.00,ESE,103,9.0,-999.0,84,0.01,,,-99.99,,2013-02-04 18:11:00,
2013-02-04 09:21:00,38.0,33.0,-100.00,ESE,103,9.0,-999.0,84,0.01,,,-99.99,,2013-02-04 18:21:00,
2013-02-04 09:30:00,37.0,33.0,-100.00,ESE,115,9.0,-999.0,85,0.00,,,-99.99,,2013-02-04 18:30:00,
2013-02-04 09:52:00,37.0,33.0,-100.00,ESE,115,9.0,-999.0,85,0.00,,,-99.99,,2013-02-04 18:52:00,
2013-02-04 10:02:00,37.0,33.0,-100.00,ESE,115,9.0,-999.0,85,0.00,,,-99.99,,2013-02-04 19:02:00,
2013-02-04 10:11:00,37.0,33.0,-100.00,ESE,115,9.0,-999.0,85,0.00,,,-99.99,,2013-02-04 19:11:00,
2013-02-04 10:22:00,37.0,33.0,-100.00,ESE,115,9.0,-999.0,85,0.00,,,-99.99,,2013-02-04 19:22:00,
2013-02-04 10:30:00,38.0,33.0,-100.00,ESE,113,9.0,-999.0,83,0.03,,,-99.99,,2013-02-04 19:30:00,
2013-02-04 10:52:00,38.0,33.0,-100.00,ESE,113,9.0,-999.0,83,0.03,,,-99.99,,2013-02-04 19:52:00,
2013-02-04 11:02:00,38.0,33.0,-100.00,ESE,113,9.0,-999.0,83,0.03,,,-99.99,,2013-02-04 20:02:00,
2013-02-04 11:12:00,38.0,33.0,-100.00,ESE,113,9.0,-999.0,83,0.03,,,-99.99,,2013-02-04 20:12:00,
2013-02-04 11:21:00,38.0,33.0,-100.00,ESE,113,9.0,-999.0,83,0.03,,,-99.99,,2013-02-04 20:21:00,
2013-02-04 11:30:00,37.0,33.0,-100.00,ENE,63,4.0,-999.0,85,0.02,,,-99.99,,2013-02-04 20:30:00,
2013-02-04 11:52:00,37.0,33.0,-100.00,ENE,63,4.0,-999.0,85,0.02,,,-99.99,,2013-02-04 20:52:00,
2013-02-04 12:02:00,37.0,33.0,-100.00,ENE,63,4.0,-999.0,85,0.02,,,-99.99,,2013-02-04 21:02:00,
2013-02-04 12:11:00,37.0,33.0,-100.00,ENE,63,4.0,-999.0,85,0.02,,,-99.99,,2013-02-04 21:11:00,
2013-02-04 12:22:00,37.0,33.0,-100.00,ENE,63,4.0,-999.0,85,0.02,,,-99.99,,2013-02-04 21:22:00,
2013-02-04 12:30:00,38.0,34.0,-100.00,ENE,60,1.0,-999.0,86,0.00,,,-99.99,,2013-02-04 21:30:00,
2013-02-04 12:52:00,38.0,34.0,-100.00,ENE,60,1.0,-999.0,86,0.00,,,-99.99,,2013-02-04 21:52:00,
2013-02-04 13:02:00,38.0,34.0,-100.00,ENE,60,1.0,-999.0,86,0.00,,,-99.99,,2013-02-04 22:02:00,
2013-02-04 13:12:00,38.0,34.0,-100.00,ENE,60,1.0,-999.0,86,0.00,,,-99.99,,2013-02-04 22:12:00,
2013-02-04 13:21:00,38.0,34.0,-100.00,ENE,60,1.0,-999.0,86,0.00,,,-99.99,,2013-02-04 22:21:00,
2013-02-04 13:30:00,40.0,33.0,-100.00,SE,138,15.0,-999.0,75,0.00,,,-99.99,,2013-02-04 22:30:00,
2013-02-04 13:52:00,40.0,33.0,-100.00,SE,138,15.0,-999.0,75,0.00,,,-99.99,,2013-02-04 22:52:00,
2013-02-04 14:01:00,40.0,33.0,-100.00,SE,138,15.0,-999.0,75,0.00,,,-99.99,,2013-02-04 23:01:00,
2013-02-04 14:11:00,40.0,33.0,-100.00,SE,138,15.0,-999.0,75,0.00,,,-99.99,,2013-02-04 23:11:00,
2013-02-04 14:21:00,40.0,33.0,-100.00,SE,138,15.0,-999.0,75,0.00,,,-99.99,,2013-02-04 23:21:00,
2013-02-04 14:30:00,40.0,31.0,-100.00,SE,140,15.0,-999.0,71,0.00,,,-99.99,,2013-02-04 23:30:00,
2013-02-04 14:52:00,40.0,31.0,-100.00,SE,140,15.0,-999.0,71,0.00,,,-99.99,,2013-02-04 23:52:00,
2013-02-04 15:01:00,40.0,31.0,-100.00,SE,140,15.0,-999.0,71,0.00,,,-99.99,,2013-02-05 00:01:00,
2013-02-04 15:11:00,40.0,31.0,-100.00,SE,140,15.0,-999.0,71,0.00,,,-99.99,,2013-02-05 00:11:00,
2013-02-04 15:21:00,40.0,31.0,-100.00,SE,140,15.0,-999.0,71,0.00,,,-99.99,,2013-02-05 00:21:00,
2013-02-04 15:30:00,40.0,31.0,-100.00,SE,132,15.0,-999.0,70,0.00,,,-99.99,,2013-02-05 00:30:00,
2013-02-04 15:52:00,40.0,31.0,-100.00,SE,132,15.0,-999.0,70,0.00,,,-99.99,,2013-02-05 00:52:00,
2013-02-04 16:01:00,40.0,31.0,-100.00,SE,132,15.0,-999.0,70,0.00,,,-99.99,,2013-02-05 01:01:00,
2013-02-04 16:11:00,40.0,31.0,-100.00,SE,132,15.0,-999.0,70,0.00,,,-99.99,,2013-02-05 01:11:00,
2013-02-04 16:21:00,40.0,31.0,-100.00,SE,132,15.0,-999.0,70,0.00,,,-99.99,,2013-02-05 01:21:00,
2013-02-04 16:30:00,41.0,30.0,-100.00,SE,132,23.0,-999.0,67,0.00,,,-99.99,,2013-02-05 01:30:00,
2013-02-04 16:52:00,41.0,30.0,-100.00,SE,132,23.0,-999.0,67,0.00,,,-99.99,,2013-02-05 01:52:00,
2013-02-04 17:01:00,41.0,30.0,-100.00,SE,132,23.0,-999.0,67,0.00,,,-99.99,,2013-02-05 02:01:00,
2013-02-04 17:11:00,41.0,30.0,-100.00,SE,132,23.0,-999.0,67,0.00,,,-99.99,,2013-02-05 02:11:00,
2013-02-04 17:21:00,41.0,30.0,-100.00,SE,132,23.0,-999.0,67,0.00,,,-99.99,,2013-02-05 02:21:00,
2013-02-04 17:30:00,40.0,31.0,-100.00,SE,143,20.0,-999.0,70,0.00,,,-99.99,,2013-02-05 02:30:00,
2013-02-04 17:52:00,40.0,31.0,-100.00,SE,143,20.0,-999.0,70,0.00,,,-99.99,,2013-02-05 02:52:00,
2013-02-04 18:01:00,40.0,31.0,-100.00,SE,143,20.0,-999.0,70,0.00,,,-99.99,,2013-02-05 03:01:00,
2013-02-04 18:11:00,40.0,31.0,-100.00,SE,143,20.0,-999.0,70,0.00,,,-99.99,,2013-02-05 03:11:00,
2013-02-04 18:21:00,40.0,31.0,-100.00,SE,143,20.0,-999.0,70,0.00,,,-99.99,,2013-02-05 03:21:00,
2013-02-04 18:30:00,40.0,31.0,-100.00,SSE,149,22.0,-999.0,71,0.00,,,-99.99,,2013-02-05 03:30:00,
2013-02-04 18:52:00,40.0,31.0,-100.00,SSE,149,22.0,-999.0,71,0.00,,,-99.99,,2013-02-05 03:52:00,
2013-02-04 19:01:00,40.0,31.0,-100.00,SSE,149,22.0,-999.0,71,0.00,,,-99.99,,2013-02-05 04:01:00,
2013-02-04 19:11:00,40.0,31.0,-100.00,SSE,149,22.0,-999.0,71,0.00,,,-99.99,,2013-02-05 04:11:00,
2013-02-04 19:21:00,40.0,31.0,-100.00,SSE,149,22.0,-999.0,71,0.00,,,-99.99,,2013-02-05 04:21:00,
2013-02-04 19:30:00,40.0,31.0,-100.00,SE,143,20.0,-999.0,70,0.00,,,-99.99,,2013-02-05 04:30:00,
2013-02-04 19:52:00,40.0,31.0,-100.00,SE,143,20.0,-999.0,70,0.00,,,-99.99,,2013-02-05 04:52:00,
2013-02-04 20:02:00,40.0,31.0,-100.00,SE,143,20.0,-999.0,70,0.00,,,-99.99,,2013-02-05 05:02:00,
2013-02-04 20:11:00,40.0,31.0,-100.00,SE,143,20.0,-999.0,70,0.00,,,-99.99,,2013-02-05 05:11:00,
2013-02-04 20:21:00,40.0,31.0,-100.00,SE,143,20.0,-999.0,70,0.00,,,-99.99,,2013-02-05 05:21:00,
2013-02-04 20:30:00,40.0,30.0,-100.00,SSE,154,24.0,-999.0,66,0.00,,,-99.99,,2013-02-05 05:30:00,
2013-02-04 20:52:00,40.0,30.0,-100.00,SSE,154,24.0,-999.0,66,0.00,,,-99.99,,2013-02-05 05:52:00,
2013-02-04 21:01:00,40.0,30.0,-100.00,SSE,154,24.0,-999.0,66,0.00,,,-99.99,,2013-02-05 06:01:00,
2013-02-04 21:11:00,40.0,30.0,-100.00,SSE,154,24.0,-999.0,66,0.00,,,-99.99,,2013-02-05 06:11:00,
2013-02-04 21:21:00,40.0,30.0,-100.00,SSE,154,24.0,-999.0,66,0.00,,,-99.99,,2013-02-05 06:21:00,
2013-02-04 21:30:00,40.0,30.0,-100.00,SSE,149,23.0,-999.0,67,0.00,,,-99.99,,2013-02-05 06:30:00,
2013-02-04 21:52:00,40.0,30.0,-100.00,SSE,149,23.0,-999.0,67,0.00,,,-99.99,,2013-02-05 06:52:00,
2013-02-04 22:01:00,40.0,30.0,-100.00,SSE,149,23.0,-999.0,67,0.00,,,-99.99,,2013-02-05 07:01:00,
2013-02-04 22:11:00,40.0,30.0,-100.00,SSE,149,23.0,-999.0,67,0.00,,,-99.99,,2013-02-05 07:11:00,
2013-02-04 22:22:00,40.0,30.0,-100.00,SSE,149,23.0,-999.0,67,0.00,,,-99.99,,2013-02-05 07:22:00,
2013-02-04 22:30:00,40.0,30.0,-100.00,SE,135,15.0,-999.0,67,0.00,,,-99.99,,2013-02-05 07:30:00,
2013-02-04 22:52:00,40.0,30.0,-100.00,SE,135,15.0,-999.0,67,0.00,,,-99.99,,2013-02-05 07:52:00,
2013-02-04 23:01:00,40.0,30.0,-100.00,SE,135,15.0,-999.0,67,0.00,,,-99.99,,2013-02-05 08:01:00,
2013-02-04 23:11:00,40.0,30.0,-100.00,SE,135,15.0,-999.0,67,0.00,,,-99.99,,2013-02-05 08:11:00,
2013-02-04 23:21:00,40.0,30.0,-100.00,SE,135,15.0,-999.0,67,0.00,,,-99.99,,2013-02-05 08:21:00,
2013-02-04 23:30:00,40.0,30.0,-100.00,SE,137,17.0,-999.0,67,0.00,,,-99.99,,2013-02-05 08:30:00,
2013-02-04 23:52:00,40.0,30.0,-100.00,SE,137,17.0,-999.0,67,0.00,,,-99.99,,2013-02-05 08:52:00,